Lifter — V2DD4 — position and weather

sailwx.info

Track history (hours):
 
Tides and Currents Weather Stations Pressure Air Temp Water Temp Dewpoint Dewpoint Depression Visibility Wind Speed Wind Dir Waves Ship Positions

Lifter

Last reported at 2017-Apr-26 21:38 UTC. Time now 2017-Apr-27 12:58 UTC.
Position N 35°54' E 031°58'.

Length 119 m; draft 7.3 m.

Type: Cargo ship. MMSI: 305175000.

Date/timePositionNaut miles runAvg speedWind from/ knotsBaromVisibWave heightAir tempDewpointWater temp
2017-Apr-26 21:38N 35°54' E 031°58'111.2
2017-Apr-26 21:30N 35°54' E 031°56'611.3
2017-Apr-26 21:00N 35°54' E 031°49'611.3
2017-Apr-26 20:30N 35°54' E 031°42'611.4
2017-Apr-26 20:00N 35°54' E 031°35'611.8
2017-Apr-26 19:30N 35°54' E 031°28'612.0
2017-Apr-26 19:00N 35°54' E 031°21'367 7.1
2017-Apr-24 15:14N 37°37' E 024°01'1111.4
2017-Apr-24 14:18N 37°30' E 023°50'38210.4
2017-Apr-23 01:29N 37°49' E 015°48'611.8
2017-Apr-23 01:00N 37°52' E 015°42'612.9
2017-Apr-23 00:30N 37°57' E 015°36'612.6
2017-Apr-23 00:00N 38°03' E 015°32'612.6
2017-Apr-22 23:30N 38°09' E 015°34'612.6
2017-Apr-22 23:00N 38°15' E 015°37'510.2
2017-Apr-22 22:31N 38°19' E 015°41'612.3
2017-Apr-22 22:00N 38°24' E 015°36'612.3
2017-Apr-22 21:30N 38°28' E 015°30'612.6
2017-Apr-22 21:00N 38°33' E 015°25'612.8
2017-Apr-22 20:30N 38°38' E 015°19'612.8
2017-Apr-22 20:01N 38°42' E 015°14'712.5
2017-Apr-22 19:29N 38°47' E 015°08'36411.8
2017-Apr-21 12:44N 43°06' E 009°30'311.9
2017-Apr-21 12:30N 43°08' E 009°27'612.2
2017-Apr-21 12:00N 43°10' E 009°19'612.3
2017-Apr-21 11:30N 43°11' E 009°11'5512.1
2017-Apr-21 06:56N 43°29' E 007°59'512.0
2017-Apr-21 06:30N 43°30' E 007°53'611.8
2017-Apr-21 06:00N 43°32' E 007°45'611.4
2017-Apr-21 05:30N 43°34' E 007°37'611.4
2017-Apr-21 05:00N 43°36' E 007°30'611.8
2017-Apr-21 04:30N 43°38' E 007°22'5 9.8
2017-Apr-21 04:00N 43°41' E 007°17'0 0.5
2017-Apr-21 03:26N 43°42' E 007°17'0 0.0
2017-Apr-21 02:29N 43°42' E 007°17'0 0.0
2017-Apr-21 01:59N 43°42' E 007°17'0 0.0
2017-Apr-21 01:29N 43°42' E 007°17'0 0.0
2017-Apr-21 00:53N 43°42' E 007°17'0 0.0
2017-Apr-21 00:26N 43°42' E 007°17'0 0.0
2017-Apr-20 23:59N 43°42' E 007°17'0 0.0
2017-Apr-20 23:29N 43°42' E 007°17'0 0.0
2017-Apr-20 22:59N 43°42' E 007°17'0 0.0
2017-Apr-20 22:26N 43°42' E 007°17'0 0.0
2017-Apr-20 21:59N 43°42' E 007°17'0 0.0
2017-Apr-20 21:26N 43°42' E 007°17'0 0.0
2017-Apr-20 20:47N 43°42' E 007°17'0 0.0
2017-Apr-20 20:23N 43°42' E 007°17'0 0.0
2017-Apr-20 19:59N 43°42' E 007°17'0 0.0
2017-Apr-20 19:14N 43°42' E 007°17'0 0.0
2017-Apr-20 18:59N 43°42' E 007°17'0 0.3
2017-Apr-20 18:30N 43°41' E 007°17'2 4.3
2017-Apr-20 18:00N 43°39' E 007°18'2 4.1
2017-Apr-20 17:30N 43°37' E 007°17'2 3.0
2017-Apr-20 17:00N 43°36' E 007°17'1 1.9
2017-Apr-20 16:30N 43°35' E 007°16'4 9.0
2017-Apr-20 16:00N 43°31' E 007°16'1 2.5
2017-Apr-20 15:30N 43°30' E 007°14'5 9.8
2017-Apr-20 15:00N 43°27' E 007°09'610.9
2017-Apr-20 14:30N 43°22' E 007°04'1510.5
2017-Apr-20 13:04N 43°11' E 006°51'111.3
2017-Apr-20 13:00N 43°10' E 006°51'214 7.4
2017-Apr-19 08:12N 40°39' E 003°27'2 5.9
2017-Apr-19 07:55N 40°38' E 003°25'2 5.9
2017-Apr-19 07:30N 40°36' E 003°22'3 6.0
2017-Apr-19 07:00N 40°34' E 003°19'3 5.8
2017-Apr-19 06:30N 40°33' E 003°16'3 5.6
2017-Apr-19 06:00N 40°31' E 003°13'3 5.5
2017-Apr-19 05:30N 40°29' E 003°11'3 5.4
2017-Apr-19 05:00N 40°27' E 003°08'3 5.7
2017-Apr-19 04:30N 40°25' E 003°06'3 5.5
2017-Apr-19 04:00N 40°23' E 003°03'3 5.8
2017-Apr-19 03:30N 40°21' E 003°01'3 6.9
2017-Apr-19 03:00N 40°18' E 002°57'4 7.7
2017-Apr-19 02:30N 40°16' E 002°54'4 8.0
2017-Apr-19 02:00N 40°13' E 002°50'4 8.5
2017-Apr-19 01:30N 40°10' E 002°46'5 9.4
2017-Apr-19 01:00N 40°07' E 002°41'5 9.7
2017-Apr-19 00:30N 40°04' E 002°36'510.0
2017-Apr-19 00:00N 40°01' E 002°31'510.2
2017-Apr-18 23:30N 39°57' E 002°26'510.3
2017-Apr-18 23:00N 39°54' E 002°21'510.3
2017-Apr-18 22:30N 39°50' E 002°17'510.6
2017-Apr-18 22:00N 39°47' E 002°11'510.9
2017-Apr-18 21:30N 39°43' E 002°06'611.1
2017-Apr-18 21:00N 39°39' E 002°01'511.0
2017-Apr-18 20:30N 39°35' E 001°56'611.2
2017-Apr-18 20:00N 39°31' E 001°51'611.5
2017-Apr-18 19:30N 39°28' E 001°45'611.7
2017-Apr-18 19:00N 39°24' E 001°39'711.5
2017-Apr-18 18:24N 39°19' E 001°33'511.7
2017-Apr-18 18:00N 39°16' E 001°28'611.9
2017-Apr-18 17:30N 39°12' E 001°23'611.7
2017-Apr-18 17:00N 39°08' E 001°17'611.5
2017-Apr-18 16:30N 39°04' E 001°12'1311.7
2017-Apr-18 15:23N 38°54' E 001°01'1211.4
2017-Apr-18 14:18N 38°45' E 000°51'58 8.9
2017-Apr-18 07:49N 38°01' E 000°02'411.4
2017-Apr-18 07:30N 37°59' W 000°01'611.5
2017-Apr-18 06:59N 37°54' W 000°06'611.3
2017-Apr-18 06:27N 37°50' W 000°11'511.2
2017-Apr-18 06:00N 37°46' W 000°16'611.1
2017-Apr-18 05:30N 37°42' W 000°21'611.2
2017-Apr-18 05:00N 37°38' W 000°26'511.1
2017-Apr-18 04:30N 37°34' W 000°30'510.8
2017-Apr-18 04:00N 37°30' W 000°34'510.9
2017-Apr-18 03:30N 37°26' W 000°40'611.2
2017-Apr-18 03:00N 37°23' W 000°45'611.2
2017-Apr-18 02:26N 37°19' W 000°51'511.2
2017-Apr-18 02:00N 37°15' W 000°56'710.9
2017-Apr-18 01:21N 37°10' W 001°02'21111.5
2017-Apr-17 07:03N 36°01' W 005°10'113.4
2017-Apr-17 07:00N 36°01' W 005°10'713.3
2017-Apr-17 06:30N 35°59' W 005°18'713.2
2017-Apr-17 06:00N 35°57' W 005°26'612.3
2017-Apr-17 05:31N 35°56' W 005°34'611.2
2017-Apr-17 05:00N 35°55' W 005°41'610.6
2017-Apr-17 04:28N 35°54' W 005°47'  
Track history (hours):
 
Tides and Currents Weather Stations Pressure Air Temp Water Temp Dewpoint Dewpoint Depression Visibility Wind Speed Wind Dir Waves Ship Positions

Lifter

Last reported at 2017-Apr-26 21:38 UTC. Time now 2017-Apr-27 12:58 UTC.
Position N 35°54' E 031°58'.

Length 119 m; draft 7.3 m.

Type: Cargo ship. MMSI: 305175000.

Date/timePositionNaut miles runAvg speedWind from/ knotsBaromVisibWave heightAir tempDewpointWater temp
2017-Apr-26 21:38N 35°54' E 031°58'111.2
2017-Apr-26 21:30N 35°54' E 031°56'611.3
2017-Apr-26 21:00N 35°54' E 031°49'611.3
2017-Apr-26 20:30N 35°54' E 031°42'611.4
2017-Apr-26 20:00N 35°54' E 031°35'611.8
2017-Apr-26 19:30N 35°54' E 031°28'612.0
2017-Apr-26 19:00N 35°54' E 031°21'367 7.1
2017-Apr-24 15:14N 37°37' E 024°01'1111.4
2017-Apr-24 14:18N 37°30' E 023°50'38210.4
2017-Apr-23 01:29N 37°49' E 015°48'611.8
2017-Apr-23 01:00N 37°52' E 015°42'612.9
2017-Apr-23 00:30N 37°57' E 015°36'612.6
2017-Apr-23 00:00N 38°03' E 015°32'612.6
2017-Apr-22 23:30N 38°09' E 015°34'612.6
2017-Apr-22 23:00N 38°15' E 015°37'510.2
2017-Apr-22 22:31N 38°19' E 015°41'612.3
2017-Apr-22 22:00N 38°24' E 015°36'612.3
2017-Apr-22 21:30N 38°28' E 015°30'612.6
2017-Apr-22 21:00N 38°33' E 015°25'612.8
2017-Apr-22 20:30N 38°38' E 015°19'612.8
2017-Apr-22 20:01N 38°42' E 015°14'712.5
2017-Apr-22 19:29N 38°47' E 015°08'36411.8
2017-Apr-21 12:44N 43°06' E 009°30'311.9
2017-Apr-21 12:30N 43°08' E 009°27'612.2
2017-Apr-21 12:00N 43°10' E 009°19'612.3
2017-Apr-21 11:30N 43°11' E 009°11'5512.1
2017-Apr-21 06:56N 43°29' E 007°59'512.0
2017-Apr-21 06:30N 43°30' E 007°53'611.8
2017-Apr-21 06:00N 43°32' E 007°45'611.4
2017-Apr-21 05:30N 43°34' E 007°37'611.4
2017-Apr-21 05:00N 43°36' E 007°30'611.8
2017-Apr-21 04:30N 43°38' E 007°22'5 9.8
2017-Apr-21 04:00N 43°41' E 007°17'0 0.5
2017-Apr-21 03:26N 43°42' E 007°17'0 0.0
2017-Apr-21 02:29N 43°42' E 007°17'0 0.0
2017-Apr-21 01:59N 43°42' E 007°17'0 0.0
2017-Apr-21 01:29N 43°42' E 007°17'0 0.0
2017-Apr-21 00:53N 43°42' E 007°17'0 0.0
2017-Apr-21 00:26N 43°42' E 007°17'0 0.0
2017-Apr-20 23:59N 43°42' E 007°17'0 0.0
2017-Apr-20 23:29N 43°42' E 007°17'0 0.0
2017-Apr-20 22:59N 43°42' E 007°17'0 0.0
2017-Apr-20 22:26N 43°42' E 007°17'0 0.0
2017-Apr-20 21:59N 43°42' E 007°17'0 0.0
2017-Apr-20 21:26N 43°42' E 007°17'0 0.0
2017-Apr-20 20:47N 43°42' E 007°17'0 0.0
2017-Apr-20 20:23N 43°42' E 007°17'0 0.0
2017-Apr-20 19:59N 43°42' E 007°17'0 0.0
2017-Apr-20 19:14N 43°42' E 007°17'0 0.0
2017-Apr-20 18:59N 43°42' E 007°17'0 0.3
2017-Apr-20 18:30N 43°41' E 007°17'2 4.3
2017-Apr-20 18:00N 43°39' E 007°18'2 4.1
2017-Apr-20 17:30N 43°37' E 007°17'2 3.0
2017-Apr-20 17:00N 43°36' E 007°17'1 1.9
2017-Apr-20 16:30N 43°35' E 007°16'4 9.0
2017-Apr-20 16:00N 43°31' E 007°16'1 2.5
2017-Apr-20 15:30N 43°30' E 007°14'5 9.8
2017-Apr-20 15:00N 43°27' E 007°09'610.9
2017-Apr-20 14:30N 43°22' E 007°04'1510.5
2017-Apr-20 13:04N 43°11' E 006°51'111.3
2017-Apr-20 13:00N 43°10' E 006°51'214 7.4
2017-Apr-19 08:12N 40°39' E 003°27'2 5.9
2017-Apr-19 07:55N 40°38' E 003°25'2 5.9
2017-Apr-19 07:30N 40°36' E 003°22'3 6.0
2017-Apr-19 07:00N 40°34' E 003°19'3 5.8
2017-Apr-19 06:30N 40°33' E 003°16'3 5.6
2017-Apr-19 06:00N 40°31' E 003°13'3 5.5
2017-Apr-19 05:30N 40°29' E 003°11'3 5.4
2017-Apr-19 05:00N 40°27' E 003°08'3 5.7
2017-Apr-19 04:30N 40°25' E 003°06'3 5.5
2017-Apr-19 04:00N 40°23' E 003°03'3 5.8
2017-Apr-19 03:30N 40°21' E 003°01'3 6.9
2017-Apr-19 03:00N 40°18' E 002°57'4 7.7
2017-Apr-19 02:30N 40°16' E 002°54'4 8.0
2017-Apr-19 02:00N 40°13' E 002°50'4 8.5
2017-Apr-19 01:30N 40°10' E 002°46'5 9.4
2017-Apr-19 01:00N 40°07' E 002°41'5 9.7
2017-Apr-19 00:30N 40°04' E 002°36'510.0
2017-Apr-19 00:00N 40°01' E 002°31'510.2
2017-Apr-18 23:30N 39°57' E 002°26'510.3
2017-Apr-18 23:00N 39°54' E 002°21'510.3
2017-Apr-18 22:30N 39°50' E 002°17'510.6
2017-Apr-18 22:00N 39°47' E 002°11'510.9
2017-Apr-18 21:30N 39°43' E 002°06'611.1
2017-Apr-18 21:00N 39°39' E 002°01'511.0
2017-Apr-18 20:30N 39°35' E 001°56'611.2
2017-Apr-18 20:00N 39°31' E 001°51'611.5
2017-Apr-18 19:30N 39°28' E 001°45'611.7
2017-Apr-18 19:00N 39°24' E 001°39'711.5
2017-Apr-18 18:24N 39°19' E 001°33'511.7
2017-Apr-18 18:00N 39°16' E 001°28'611.9
2017-Apr-18 17:30N 39°12' E 001°23'611.7
2017-Apr-18 17:00N 39°08' E 001°17'611.5
2017-Apr-18 16:30N 39°04' E 001°12'1311.7
2017-Apr-18 15:23N 38°54' E 001°01'1211.4
2017-Apr-18 14:18N 38°45' E 000°51'58 8.9
2017-Apr-18 07:49N 38°01' E 000°02'411.4
2017-Apr-18 07:30N 37°59' W 000°01'611.5
2017-Apr-18 06:59N 37°54' W 000°06'611.3
2017-Apr-18 06:27N 37°50' W 000°11'511.2
2017-Apr-18 06:00N 37°46' W 000°16'611.1
2017-Apr-18 05:30N 37°42' W 000°21'611.2
2017-Apr-18 05:00N 37°38' W 000°26'511.1
2017-Apr-18 04:30N 37°34' W 000°30'510.8
2017-Apr-18 04:00N 37°30' W 000°34'510.9
2017-Apr-18 03:30N 37°26' W 000°40'611.2
2017-Apr-18 03:00N 37°23' W 000°45'611.2
2017-Apr-18 02:26N 37°19' W 000°51'511.2
2017-Apr-18 02:00N 37°15' W 000°56'710.9
2017-Apr-18 01:21N 37°10' W 001°02'21111.5
2017-Apr-17 07:03N 36°01' W 005°10'113.4
2017-Apr-17 07:00N 36°01' W 005°10'713.3
2017-Apr-17 06:30N 35°59' W 005°18'713.2
2017-Apr-17 06:00N 35°57' W 005°26'612.3
2017-Apr-17 05:31N 35°56' W 005°34'611.2
2017-Apr-17 05:00N 35°55' W 005°41'610.6
2017-Apr-17 04:28N 35°54' W 005°47'  

Dump ship's entire track history